Cordova, New Mexico
Current Conditions -  °F | °C
As of 1:35 AM on Saturday 29 Nov 2014 (Local Time) from KLAM Reporting Station
Clear Clear  
Wind Chill: 40°   Ceiling: Unl
Heat Index: 43°   Visibility: 10mi
Dew Point: 14°   Wind: 5mph
Humidity: 31%   Direction: 220°SW
Pressure: 30.09"   Gusts: NA
Location:  36.01°N, 105.86°W
Report Text: KLAM 290835Z AUTO 22004KT 10SM CLR 06/M10 A3009 RMK AO2 T00601100
Loading
Personal Weather Stations






























Interactive Weather Map New forecast layout! Learn more

10-Day Weather Forecast

Advertisements
Track Severe Weather on mobile